createdAt,value
2023-03-29T00:01:43.439Z,101556.31
2023-03-29T00:04:14.426Z,101555.90
2023-03-29T00:06:44.616Z,101546.42
2023-03-29T00:09:15.368Z,101549.53
2023-03-29T00:11:46.074Z,101548.53
2023-03-29T00:14:16.825Z,101541.53
2023-03-29T00:16:47.575Z,101538.43
2023-03-29T00:19:18.364Z,101533.34
2023-03-29T00:21:49.019Z,101539.12
2023-03-29T00:24:19.753Z,101534.75
2023-03-29T00:26:50.488Z,101533.41
2023-03-29T00:29:21.228Z,101527.95
2023-03-29T00:31:52.099Z,101528.19
2023-03-29T00:34:22.710Z,101528.41
2023-03-29T00:36:53.436Z,101523.54
2023-03-29T00:39:24.182Z,101522.86
2023-03-29T00:41:54.962Z,101517.83
2023-03-29T00:44:25.665Z,101514.46
2023-03-29T00:46:55.772Z,101510.81
2023-03-29T00:49:25.983Z,101504.95
2023-03-29T00:51:56.784Z,101503.76
2023-03-29T00:54:27.456Z,101498.95
2023-03-29T00:56:57.970Z,101494.63
2023-03-29T00:59:28.326Z,101490.91
2023-03-29T01:01:59.102Z,101485.20
2023-03-29T01:04:29.236Z,101492.83
2023-03-29T01:06:59.822Z,101487.71
2023-03-29T01:09:29.893Z,101491.40
2023-03-29T01:12:00.116Z,101489.05
2023-03-29T01:14:30.505Z,101481.70
2023-03-29T01:17:01.289Z,101474.71
2023-03-29T01:19:32.081Z,101469.20
2023-03-29T01:22:02.147Z,101464.78
2023-03-29T01:24:32.722Z,101462.98
2023-03-29T01:27:02.958Z,101449.09
2023-03-29T01:29:32.994Z,101448.53
2023-03-29T01:32:03.676Z,101442.72
2023-03-29T01:34:34.045Z,101436.23
2023-03-29T01:37:04.775Z,101434.26
2023-03-29T01:39:35.600Z,101432.61
2023-03-29T01:42:06.376Z,101427.47
2023-03-29T01:44:37.091Z,101427.51
2023-03-29T01:47:07.286Z,101426.43
2023-03-29T01:49:38.158Z,101422.58
2023-03-29T01:52:08.207Z,101413.78
2023-03-29T01:54:38.324Z,101404.13
2023-03-29T01:57:08.896Z,101403.53
2023-03-29T01:59:39.344Z,101405.51
2023-03-29T02:02:09.850Z,101405.15
2023-03-29T02:04:40.046Z,101405.12
2023-03-29T02:07:10.490Z,101396.77
2023-03-29T02:09:41.281Z,101393.15
2023-03-29T02:12:12.094Z,101394.50
2023-03-29T02:14:42.288Z,101394.12
2023-03-29T02:17:12.475Z,101389.17
2023-03-29T02:19:43.200Z,101387.37
2023-03-29T02:22:13.586Z,101388.06
2023-03-29T02:24:44.190Z,101382.87
2023-03-29T02:27:14.735Z,101376.38
2023-03-29T02:29:45.448Z,101376.13
2023-03-29T02:32:15.978Z,101373.18
2023-03-29T02:34:46.394Z,101371.48
2023-03-29T02:37:16.623Z,101364.35
2023-03-29T02:39:47.247Z,101357.07
2023-03-29T02:42:18.006Z,101351.42
2023-03-29T02:44:48.729Z,101357.84
2023-03-29T02:47:19.242Z,101353.88
2023-03-29T02:49:50.101Z,101349.62
2023-03-29T02:52:20.730Z,101347.07
2023-03-29T02:54:50.824Z,101342.24
2023-03-29T02:57:21.950Z,101338.67
2023-03-29T02:59:52.275Z,101334.29
2023-03-29T03:02:22.600Z,101330.42
2023-03-29T03:04:52.902Z,101327.44
2023-03-29T03:07:23.109Z,101323.55
2023-03-29T03:09:53.257Z,101322.39
2023-03-29T03:12:24.047Z,101319.20
2023-03-29T03:14:54.390Z,101318.92
2023-03-29T03:17:24.915Z,101323.28
2023-03-29T03:19:55.561Z,101317.18
2023-03-29T03:22:25.862Z,101317.23
2023-03-29T03:24:56.455Z,101313.29
2023-03-29T03:27:27.241Z,101317.45
2023-03-29T03:29:57.949Z,101317.80
2023-03-29T03:32:28.200Z,101318.71
2023-03-29T03:34:58.836Z,101316.59
2023-03-29T03:37:29.249Z,101316.96
2023-03-29T03:39:59.443Z,101315.15
2023-03-29T03:42:29.861Z,101313.50
2023-03-29T03:45:00.625Z,101310.96
2023-03-29T03:47:31.383Z,101313.61
2023-03-29T03:50:01.582Z,101311.17
2023-03-29T03:52:31.705Z,101309.95
2023-03-29T03:55:02.466Z,101308.94
2023-03-29T03:57:33.170Z,101308.15
2023-03-29T04:00:03.618Z,101303.60
2023-03-29T04:02:34.201Z,101304.02
2023-03-29T04:05:04.847Z,101306.04
2023-03-29T04:07:35.270Z,101297.49
2023-03-29T04:10:05.740Z,101298.25
2023-03-29T04:12:35.923Z,101294.02
2023-03-29T04:15:06.078Z,101286.00
2023-03-29T04:17:36.548Z,101287.08
2023-03-29T04:20:06.921Z,101286.43
2023-03-29T04:22:37.394Z,101282.13
2023-03-29T04:25:07.852Z,101276.56
2023-03-29T04:27:38.470Z,101279.20
2023-03-29T04:30:08.630Z,101275.64
2023-03-29T04:32:39.164Z,101278.30
2023-03-29T04:35:09.565Z,101277.37
2023-03-29T04:37:40.239Z,101272.48
2023-03-29T04:40:10.408Z,101269.77
2023-03-29T04:42:40.791Z,101267.12
2023-03-29T04:45:11.313Z,101268.97
2023-03-29T04:47:41.767Z,101268.84
2023-03-29T04:50:12.095Z,101268.99
2023-03-29T04:52:42.565Z,101269.16
2023-03-29T04:55:13.314Z,101260.85
2023-03-29T04:57:44.044Z,101263.38
2023-03-29T05:00:14.148Z,101264.67
2023-03-29T05:02:44.751Z,101260.63
2023-03-29T05:05:15.048Z,101257.27
2023-03-29T05:07:45.098Z,101254.37
2023-03-29T05:10:15.262Z,101254.13
2023-03-29T05:12:45.777Z,101260.04
2023-03-29T05:15:16.619Z,101258.80
2023-03-29T05:17:47.284Z,101252.33
2023-03-29T05:20:17.384Z,101251.74
2023-03-29T05:22:48.085Z,101249.87
2023-03-29T05:25:18.182Z,101251.95
2023-03-29T05:27:48.377Z,101251.90
2023-03-29T05:30:18.817Z,101251.65
2023-03-29T05:32:49.453Z,101250.36
2023-03-29T05:35:19.375Z,101250.46
2023-03-29T05:37:49.555Z,101248.59
2023-03-29T05:40:20.204Z,101245.69
2023-03-29T05:42:50.897Z,101242.33
2023-03-29T05:45:21.816Z,101247.79
2023-03-29T05:47:52.315Z,101255.24
2023-03-29T05:50:22.997Z,101255.80
2023-03-29T05:52:53.042Z,101249.69
2023-03-29T05:55:23.067Z,101249.61
2023-03-29T05:57:53.253Z,101249.22
2023-03-29T06:00:24.319Z,101249.37
2023-03-29T06:02:56.367Z,101250.17
2023-03-29T06:05:25.276Z,101256.16
2023-03-29T06:07:55.784Z,101259.34
2023-03-29T06:10:25.917Z,101256.19
2023-03-29T06:12:56.675Z,101254.49
2023-03-29T06:15:26.981Z,101253.00
2023-03-29T06:17:57.772Z,101258.31
2023-03-29T06:20:27.853Z,101267.00
2023-03-29T06:22:58.667Z,101268.23
2023-03-29T06:25:29.334Z,101265.27
2023-03-29T06:28:00.130Z,101262.98
2023-03-29T06:30:30.396Z,101264.12
2023-03-29T06:33:00.548Z,101263.07
2023-03-29T06:35:30.977Z,101262.82
2023-03-29T06:38:01.623Z,101260.71
2023-03-29T06:40:32.318Z,101261.51
2023-03-29T06:43:03.323Z,101264.77
2023-03-29T06:45:33.521Z,101264.14
2023-03-29T06:48:03.922Z,101262.77
2023-03-29T06:50:34.368Z,101264.82
2023-03-29T06:53:04.799Z,101257.56
2023-03-29T06:55:34.881Z,101254.14
2023-03-29T06:58:05.355Z,101258.19
2023-03-29T07:00:35.920Z,101264.02
2023-03-29T07:03:06.183Z,101264.02
2023-03-29T07:05:36.194Z,101264.52
2023-03-29T07:08:07.001Z,101270.33
2023-03-29T07:10:37.695Z,101270.06
2023-03-29T07:13:08.442Z,101270.41
2023-03-29T07:15:38.726Z,101268.31
2023-03-29T07:18:09.372Z,101267.71
2023-03-29T07:20:40.020Z,101270.49
2023-03-29T07:23:10.327Z,101270.53
2023-03-29T07:25:40.382Z,101268.77
2023-03-29T07:28:11.146Z,101262.71
2023-03-29T07:30:41.459Z,101264.26
2023-03-29T07:33:12.017Z,101265.04
2023-03-29T07:35:42.010Z,101268.98
2023-03-29T07:38:12.473Z,101268.93
2023-03-29T07:40:42.854Z,101276.65
2023-03-29T07:43:13.462Z,101276.95
2023-03-29T07:45:43.521Z,101276.72
2023-03-29T07:48:13.771Z,101277.73
2023-03-29T07:50:44.323Z,101276.29
2023-03-29T07:53:14.430Z,101284.17
2023-03-29T07:58:15.583Z,101273.93
2023-03-29T08:00:45.915Z,101279.39
2023-03-29T08:03:16.319Z,101274.64
2023-03-29T08:05:46.902Z,101279.87
2023-03-29T08:08:17.330Z,101284.55
2023-03-29T08:10:47.725Z,101281.08
2023-03-29T08:13:18.071Z,101285.53
2023-03-29T08:15:48.741Z,101280.54
2023-03-29T08:18:19.436Z,101288.67
2023-03-29T08:20:49.872Z,101283.24
2023-03-29T08:23:19.932Z,101279.64
2023-03-29T08:25:50.304Z,101279.76
2023-03-29T08:28:20.995Z,101281.97
2023-03-29T08:30:51.726Z,101273.57
2023-03-29T08:33:22.645Z,101275.42
2023-03-29T08:35:53.328Z,101278.34
2023-03-29T08:38:24.191Z,101274.10
2023-03-29T08:40:54.190Z,101267.75
2023-03-29T08:43:24.972Z,101271.06
2023-03-29T08:45:55.854Z,101263.58
2023-03-29T08:48:26.350Z,101266.69
2023-03-29T08:50:56.629Z,101266.79
2023-03-29T08:53:26.786Z,101264.28
2023-03-29T08:55:57.055Z,101271.42
2023-03-29T08:58:27.789Z,101269.61
2023-03-29T09:00:58.415Z,101273.84
2023-03-29T09:03:28.662Z,101271.59
2023-03-29T09:05:59.068Z,101273.77
2023-03-29T09:08:29.408Z,101274.65
2023-03-29T09:10:59.841Z,101272.82
2023-03-29T09:13:30.499Z,101269.26
2023-03-29T09:16:01.265Z,101269.19
2023-03-29T09:18:31.526Z,101264.61
2023-03-29T09:21:02.377Z,101259.39
2023-03-29T09:23:32.389Z,101256.46
2023-03-29T09:26:02.985Z,101247.91
2023-03-29T09:28:33.321Z,101244.14
2023-03-29T09:31:04.097Z,101243.03
2023-03-29T09:33:34.534Z,101249.67
2023-03-29T09:36:04.876Z,101251.65
2023-03-29T09:38:35.087Z,101249.02
2023-03-29T09:41:05.533Z,101245.53
2023-03-29T09:43:35.781Z,101239.12
2023-03-29T09:46:06.315Z,101246.11
2023-03-29T09:48:36.892Z,101237.72
2023-03-29T09:51:07.455Z,101240.07
2023-03-29T09:53:38.340Z,101235.41
2023-03-29T09:56:08.825Z,101235.09
2023-03-29T09:58:39.395Z,101237.36
2023-03-29T10:01:09.719Z,101232.39
2023-03-29T10:03:40.006Z,101232.48
2023-03-29T10:06:10.172Z,101233.71
2023-03-29T10:08:40.796Z,101233.75
2023-03-29T10:11:11.027Z,101236.41
2023-03-29T10:13:41.639Z,101231.24
2023-03-29T10:16:11.882Z,101227.02
2023-03-29T10:18:42.135Z,101229.94
2023-03-29T10:21:12.211Z,101229.61
2023-03-29T10:23:42.285Z,101216.05
2023-03-29T10:26:12.532Z,101221.60
2023-03-29T10:28:43.071Z,101225.26
2023-03-29T10:31:14.563Z,101220.46
2023-03-29T10:33:43.835Z,101216.83
2023-03-29T10:36:14.336Z,101216.38
2023-03-29T10:38:44.843Z,101217.48
2023-03-29T10:41:15.415Z,101215.61
2023-03-29T10:43:45.864Z,101213.65
2023-03-29T10:46:16.113Z,101217.46
2023-03-29T10:48:46.393Z,101216.49
2023-03-29T10:51:16.795Z,101218.58
2023-03-29T10:53:47.329Z,101219.97
2023-03-29T10:56:17.856Z,101222.01
2023-03-29T10:58:48.350Z,101217.51
2023-03-29T11:01:18.555Z,101223.33
2023-03-29T11:03:49.227Z,101221.51
2023-03-29T11:06:19.888Z,101218.58
2023-03-29T11:08:50.665Z,101212.98
2023-03-29T11:11:21.167Z,101208.46
2023-03-29T11:13:51.699Z,101202.47
2023-03-29T11:16:22.587Z,101208.30
2023-03-29T11:18:53.035Z,101203.65
2023-03-29T11:21:23.546Z,101211.64
2023-03-29T11:23:54.073Z,101213.87
2023-03-29T11:26:24.413Z,101213.16
2023-03-29T11:28:55.164Z,101202.70
2023-03-29T11:31:25.662Z,101204.77
2023-03-29T11:33:55.813Z,101205.17
2023-03-29T11:36:26.010Z,101197.79
2023-03-29T11:38:56.260Z,101194.11
2023-03-29T11:41:26.985Z,101187.90
2023-03-29T11:43:57.462Z,101187.03
2023-03-29T11:46:27.986Z,101183.93
2023-03-29T11:48:58.237Z,101181.39
2023-03-29T11:51:28.959Z,101173.67
2023-03-29T11:53:59.680Z,101170.73
2023-03-29T11:56:30.454Z,101169.64
2023-03-29T11:59:00.928Z,101175.68
2023-03-29T12:01:31.394Z,101171.34
2023-03-29T12:04:01.718Z,101173.16
2023-03-29T12:06:31.725Z,101173.22
2023-03-29T12:09:02.221Z,101172.25
2023-03-29T12:11:33.007Z,101165.31
2023-03-29T12:14:03.829Z,101154.35
2023-03-29T12:16:34.691Z,101157.19
2023-03-29T12:19:04.874Z,101157.93
2023-03-29T12:21:35.336Z,101157.55
2023-03-29T12:24:06.196Z,101152.92
2023-03-29T12:26:36.729Z,101154.09
2023-03-29T12:29:07.203Z,101147.65
2023-03-29T12:31:37.607Z,101147.32
2023-03-29T12:34:08.170Z,101141.21
2023-03-29T12:36:38.385Z,101138.16
2023-03-29T12:39:08.643Z,101141.13
2023-03-29T12:41:39.135Z,101141.89
2023-03-29T12:44:10.817Z,101135.09
2023-03-29T12:46:40.107Z,101136.47
2023-03-29T12:49:10.873Z,101136.49
2023-03-29T12:51:41.326Z,101131.48
2023-03-29T12:54:12.137Z,101126.78
2023-03-29T12:56:42.254Z,101127.48
2023-03-29T12:59:12.795Z,101132.77
2023-03-29T13:01:43.252Z,101137.58
2023-03-29T13:04:13.440Z,101136.79
2023-03-29T13:06:43.876Z,101130.79
2023-03-29T13:09:14.653Z,101128.52
2023-03-29T13:11:44.854Z,101123.63
2023-03-29T13:14:14.918Z,101121.78
2023-03-29T13:16:45.640Z,101120.40
2023-03-29T13:19:16.343Z,101125.90
2023-03-29T13:21:46.511Z,101129.99
2023-03-29T13:24:16.918Z,101127.82
2023-03-29T13:26:47.121Z,101128.96
2023-03-29T13:29:17.716Z,101126.91
2023-03-29T13:31:47.965Z,101129.67
2023-03-29T13:34:18.376Z,101124.29
2023-03-29T13:36:48.724Z,101125.97
2023-03-29T13:39:19.224Z,101131.02
2023-03-29T13:41:49.884Z,101124.27
2023-03-29T13:44:20.006Z,101125.43
2023-03-29T13:46:50.124Z,101127.37
2023-03-29T13:49:20.616Z,101122.19
2023-03-29T13:51:50.739Z,101117.37
2023-03-29T13:54:20.865Z,101108.37
2023-03-29T13:56:50.947Z,101102.97
2023-03-29T13:59:21.605Z,101099.80
2023-03-29T14:01:52.493Z,101095.18
2023-03-29T14:04:22.844Z,101087.26
2023-03-29T14:06:52.982Z,101082.17
2023-03-29T14:09:23.738Z,101079.12
2023-03-29T14:11:53.812Z,101074.88
2023-03-29T14:14:24.586Z,101075.66
2023-03-29T14:16:54.662Z,101069.50
2023-03-29T14:19:24.801Z,101065.03
2023-03-29T14:21:55.274Z,101068.35
2023-03-29T14:24:25.351Z,101064.00
2023-03-29T14:26:55.485Z,101058.61
2023-03-29T14:29:25.933Z,101058.07
2023-03-29T14:31:56.446Z,101054.59
2023-03-29T14:34:26.461Z,101050.65
2023-03-29T14:36:57.233Z,101048.58
2023-03-29T14:39:27.638Z,101048.62
2023-03-29T14:41:58.035Z,101048.36
2023-03-29T14:44:28.179Z,101050.80
2023-03-29T14:46:58.594Z,101052.71
2023-03-29T14:49:29.349Z,101057.78
2023-03-29T14:51:59.771Z,101059.88
2023-03-29T14:54:30.218Z,101059.19
2023-03-29T14:57:00.676Z,101058.96
2023-03-29T14:59:31.324Z,101062.71
2023-03-29T15:02:02.058Z,101064.45
2023-03-29T15:04:32.506Z,101060.94
2023-03-29T15:07:02.928Z,101051.68
2023-03-29T15:09:33.379Z,101053.39
2023-03-29T15:12:03.536Z,101048.09
2023-03-29T15:14:34.410Z,101047.27
2023-03-29T15:17:05.060Z,101038.21
2023-03-29T15:19:35.688Z,101036.44
2023-03-29T15:22:06.064Z,101029.12
2023-03-29T15:24:36.392Z,101020.60
2023-03-29T15:27:06.852Z,101017.21
2023-03-29T15:29:37.338Z,101014.94
2023-03-29T15:32:07.484Z,101015.40
2023-03-29T15:34:37.891Z,101009.00
2023-03-29T15:37:08.360Z,101009.74
2023-03-29T15:39:38.436Z,101016.22
2023-03-29T15:42:08.583Z,101020.42
2023-03-29T15:44:39.121Z,101019.59
2023-03-29T15:47:09.585Z,101014.28
2023-03-29T15:49:39.926Z,101009.12
2023-03-29T15:52:10.343Z,101009.00
2023-03-29T15:54:40.521Z,100995.17
2023-03-29T15:57:10.762Z,100992.56
2023-03-29T15:59:40.778Z,100999.23
2023-03-29T16:02:11.311Z,101001.07
2023-03-29T16:04:41.699Z,100987.27
2023-03-29T16:07:12.103Z,100977.41
2023-03-29T16:09:42.613Z,100972.41
2023-03-29T16:12:13.317Z,100978.20
2023-03-29T16:14:43.443Z,100980.89
2023-03-29T16:17:13.574Z,100969.41
2023-03-29T16:19:43.855Z,100967.75
2023-03-29T16:22:14.194Z,100967.96
2023-03-29T16:24:44.522Z,100962.54
2023-03-29T16:27:14.780Z,100954.33
2023-03-29T16:29:45.191Z,100953.52
2023-03-29T16:32:15.750Z,100949.53
2023-03-29T16:34:46.097Z,100943.87
2023-03-29T16:37:16.499Z,100944.24
2023-03-29T16:39:46.951Z,100942.40
2023-03-29T16:42:17.452Z,100946.91
2023-03-29T16:44:47.821Z,100943.53
2023-03-29T16:47:17.888Z,100944.14
2023-03-29T16:49:48.404Z,100939.39
2023-03-29T16:52:18.741Z,100940.13
2023-03-29T16:54:48.935Z,100945.73
2023-03-29T16:57:19.114Z,100948.11
2023-03-29T16:59:49.528Z,100950.37
2023-03-29T17:02:19.575Z,100948.69
2023-03-29T17:04:50.069Z,100944.50
2023-03-29T17:07:20.149Z,100942.57
2023-03-29T17:09:50.312Z,100942.58
2023-03-29T17:12:20.729Z,100935.78
2023-03-29T17:14:51.159Z,100930.86
2023-03-29T17:17:21.314Z,100925.86
2023-03-29T17:19:51.701Z,100921.62
2023-03-29T17:22:21.765Z,100920.11
2023-03-29T17:24:52.295Z,100917.58
2023-03-29T17:27:22.529Z,100912.94
2023-03-29T17:29:52.900Z,100909.24
2023-03-29T17:32:23.464Z,100904.41
2023-03-29T17:34:53.841Z,100901.80
2023-03-29T17:37:24.148Z,100892.91
2023-03-29T17:39:54.353Z,100890.76
2023-03-29T17:42:24.418Z,100881.39
2023-03-29T17:44:54.888Z,100883.75
2023-03-29T17:47:25.388Z,100889.80
2023-03-29T17:49:55.512Z,100899.43
2023-03-29T17:52:25.664Z,100898.87
2023-03-29T17:54:56.068Z,100900.99
2023-03-29T17:57:26.645Z,100897.81
2023-03-29T17:59:56.966Z,100886.10
2023-03-29T18:02:27.435Z,100885.85
2023-03-29T18:04:57.752Z,100884.67
2023-03-29T18:07:28.539Z,100879.45
2023-03-29T18:09:59.273Z,100875.75
2023-03-29T18:12:29.820Z,100878.73
2023-03-29T18:15:00.370Z,100866.99
2023-03-29T18:17:30.784Z,100850.88
2023-03-29T18:20:01.226Z,100838.32
2023-03-29T18:22:31.886Z,100838.44
2023-03-29T18:25:01.929Z,100835.47
2023-03-29T18:27:32.695Z,100836.77
2023-03-29T18:30:02.891Z,100839.97
2023-03-29T18:32:33.098Z,100840.18
2023-03-29T18:35:03.124Z,100838.89
2023-03-29T18:37:33.756Z,100840.65
2023-03-29T18:40:04.574Z,100835.31
2023-03-29T18:42:35.139Z,100828.79
2023-03-29T18:45:05.612Z,100825.45
2023-03-29T18:47:36.468Z,100823.89
2023-03-29T18:50:07.157Z,100819.87
2023-03-29T18:52:37.431Z,100820.28
2023-03-29T18:55:07.789Z,100821.11
2023-03-29T18:57:38.739Z,100821.50
2023-03-29T19:00:08.873Z,100810.68
2023-03-29T19:02:38.961Z,100812.45
2023-03-29T19:05:09.037Z,100819.19
2023-03-29T19:07:39.701Z,100818.07
2023-03-29T19:10:10.362Z,100809.80
2023-03-29T19:12:41.192Z,100813.32
2023-03-29T19:15:11.494Z,100810.01
2023-03-29T19:17:41.544Z,100810.51
2023-03-29T19:20:12.270Z,100808.76
2023-03-29T19:22:42.584Z,100804.00
2023-03-29T19:25:13.396Z,100799.82
2023-03-29T19:27:43.850Z,100803.83
2023-03-29T19:30:13.941Z,100798.79
2023-03-29T19:32:44.197Z,100792.29
2023-03-29T19:35:14.255Z,100791.14
2023-03-29T19:37:44.765Z,100783.06
2023-03-29T19:40:15.253Z,100778.26
2023-03-29T19:42:45.664Z,100778.77
2023-03-29T19:45:16.119Z,100773.66
2023-03-29T19:47:46.453Z,100772.78
2023-03-29T19:50:17.196Z,100761.97
2023-03-29T19:52:47.440Z,100762.24
2023-03-29T19:55:17.838Z,100761.33
2023-03-29T19:57:48.636Z,100753.30
2023-03-29T20:00:18.995Z,100750.41
2023-03-29T20:02:49.334Z,100750.94
2023-03-29T20:05:19.741Z,100748.27
2023-03-29T20:07:50.193Z,100751.12
2023-03-29T20:10:20.528Z,100744.60
2023-03-29T20:12:50.792Z,100736.68
2023-03-29T20:15:20.940Z,100728.48
2023-03-29T20:17:51.634Z,100724.57
2023-03-29T20:20:21.800Z,100721.51
2023-03-29T20:22:52.166Z,100718.31
2023-03-29T20:25:22.600Z,100711.00
2023-03-29T20:27:53.229Z,100708.41
2023-03-29T20:30:23.478Z,100700.68
2023-03-29T20:32:53.984Z,100693.64
2023-03-29T20:35:24.829Z,100692.68
2023-03-29T20:37:54.833Z,100698.54
2023-03-29T20:40:25.673Z,100693.79
2023-03-29T20:42:55.949Z,100687.75
2023-03-29T20:45:26.250Z,100688.01
2023-03-29T20:47:56.741Z,100688.51
2023-03-29T20:50:27.187Z,100684.90
2023-03-29T20:52:57.573Z,100676.58
2023-03-29T20:55:28.424Z,100667.61
2023-03-29T20:57:58.813Z,100663.57
2023-03-29T21:00:29.483Z,100664.20
2023-03-29T21:03:00.166Z,100659.67
2023-03-29T21:05:30.478Z,100646.85
2023-03-29T21:08:01.053Z,100629.38
2023-03-29T21:10:31.629Z,100626.50
2023-03-29T21:13:02.444Z,100622.13
2023-03-29T21:15:32.959Z,100616.66
2023-03-29T21:18:03.632Z,100615.76
2023-03-29T21:20:34.151Z,100609.92
2023-03-29T21:23:04.530Z,100605.62
2023-03-29T21:25:34.848Z,100600.51
2023-03-29T21:28:05.113Z,100597.18
2023-03-29T21:30:35.495Z,100595.76
2023-03-29T21:33:05.720Z,100595.33
2023-03-29T21:35:36.293Z,100595.52
2023-03-29T21:38:06.935Z,100597.88
2023-03-29T21:40:37.459Z,100594.28
2023-03-29T21:43:08.004Z,100589.30
2023-03-29T21:45:38.583Z,100584.87
2023-03-29T21:48:08.600Z,100577.35
2023-03-29T21:50:39.242Z,100572.37
2023-03-29T21:53:09.544Z,100562.67
2023-03-29T21:55:40.133Z,100561.69
2023-03-29T21:58:10.236Z,100554.51
2023-03-29T22:00:40.595Z,100546.04
2023-03-29T22:03:11.385Z,100542.28
2023-03-29T22:05:42.028Z,100539.65
2023-03-29T22:08:12.813Z,100533.93
2023-03-29T22:10:43.013Z,100532.25
2023-03-29T22:13:13.862Z,100529.61
2023-03-29T22:15:44.426Z,100526.54
2023-03-29T22:18:14.964Z,100524.46
2023-03-29T22:20:45.279Z,100520.49
2023-03-29T22:23:15.301Z,100525.46
2023-03-29T22:25:45.903Z,100520.09
2023-03-29T22:28:16.244Z,100518.43
2023-03-29T22:30:46.879Z,100515.12
2023-03-29T22:33:17.245Z,100517.91
2023-03-29T22:35:47.642Z,100523.19
2023-03-29T22:38:18.157Z,100522.10
2023-03-29T22:40:48.290Z,100525.85
2023-03-29T22:43:18.505Z,100529.67
2023-03-29T22:45:48.782Z,100530.97
2023-03-29T22:48:19.270Z,100519.80
2023-03-29T22:50:50.178Z,100513.42
2023-03-29T22:53:20.740Z,100496.87
2023-03-29T22:55:50.882Z,100491.13
2023-03-29T22:58:21.263Z,100493.68
2023-03-29T23:00:51.226Z,100497.96
2023-03-29T23:03:22.240Z,100485.50
2023-03-29T23:05:52.818Z,100473.79
2023-03-29T23:08:22.849Z,100466.58
2023-03-29T23:10:53.115Z,100462.94
2023-03-29T23:13:23.940Z,100457.77
2023-03-29T23:15:54.781Z,100452.34
2023-03-29T23:18:25.175Z,100449.94
2023-03-29T23:20:55.251Z,100446.14
2023-03-29T23:23:25.307Z,100447.26
2023-03-29T23:25:56.098Z,100440.07
2023-03-29T23:28:26.305Z,100434.67
2023-03-29T23:30:57.137Z,100436.60
2023-03-29T23:33:27.751Z,100431.42
2023-03-29T23:35:58.614Z,100431.93
2023-03-29T23:38:29.225Z,100423.59
2023-03-29T23:40:59.317Z,100440.06
2023-03-29T23:43:29.476Z,100431.26
2023-03-29T23:46:00.253Z,100424.37
2023-03-29T23:48:31.036Z,100427.39
2023-03-29T23:51:01.845Z,100418.19
2023-03-29T23:53:32.053Z,100413.18
2023-03-29T23:56:02.658Z,100410.71
2023-03-29T23:58:33.459Z,100395.60
